Time;durP1;ratioP1;P1;durP2;ratioP2;P2;SDS_P1;SDS_P2;PMS_P1;PMS_P2;Temp;Humidity;BMP_temperature;BMP_pressure;BME280_temperature;BME280_humidity;BME280_pressure;Samples;Min_cycle;Max_cycle;Signal;HPM_P1;HPM_P2
2022/12/02 00:05:24;;;;;;;7.40;5.43;;;;;;;18.23;39.50;102468.25;16116986;19;130448;-38
2022/12/02 00:10:46;;;;;;;7.30;4.97;;;;;;;18.18;39.31;102453.28;16128872;19;129975;-38
2022/12/02 00:16:23;;;;;;;8.10;5.82;;;;;;;18.18;39.29;102451.38;16127618;19;130769;-38
2022/12/02 00:21:44;;;;;;;;;;;;;;;18.09;39.18;102449.84;16126487;19;129358;-38
2022/12/02 00:27:06;;;;;;;9.18;5.90;;;;;;;18.11;39.32;102453.25;16128679;19;129431;-37
2022/12/02 00:32:28;;;;;;;8.93;5.70;;;;;;;18.06;39.43;102451.13;16130408;19;129674;-38
2022/12/02 00:37:50;;;;;;;7.20;5.40;;;;;;;18.05;39.51;102440.22;16128078;19;130905;-37
2022/12/02 00:48:53;;;;;;;10.10;5.95;;;;;;;17.99;39.53;102433.59;16129204;19;129257;-37
2022/12/02 00:54:14;;;;;;;8.05;5.85;;;;;;;17.98;39.54;102437.41;16127867;19;129385;-38
2022/12/02 00:59:36;;;;;;;10.38;6.18;;;;;;;17.96;39.42;102422.94;16129355;19;129379;-38
2022/12/02 01:04:58;;;;;;;9.02;6.00;;;;;;;17.94;39.32;102425.06;16125011;19;130060;-37
2022/12/02 01:10:20;;;;;;;8.07;5.72;;;;;;;17.92;39.14;102424.41;16125623;19;130101;-37
2022/12/02 01:15:41;;;;;;;7.85;5.70;;;;;;;17.89;39.00;102428.44;16123421;19;129849;-40
2022/12/02 01:21:04;;;;;;;7.05;5.65;;;;;;;17.88;39.16;102412.03;16124912;19;129765;-38
2022/12/02 01:26:25;;;;;;;8.35;6.15;;;;;;;17.85;39.12;102405.84;16123162;19;130303;-37
2022/12/02 01:31:47;;;;;;;7.95;5.88;;;;;;;17.82;39.53;102403.50;16125179;19;129434;-37
2022/12/02 01:37:09;;;;;;;7.88;6.05;;;;;;;17.80;39.34;102408.38;16123314;19;129277;-37
2022/12/02 01:42:31;;;;;;;7.50;5.93;;;;;;;17.79;39.28;102406.66;16124917;19;129786;-37
2022/12/02 01:47:53;;;;;;;9.48;6.53;;;;;;;17.76;39.04;102407.06;16125515;19;129639;-37
2022/12/02 01:53:15;;;;;;;8.68;6.00;;;;;;;17.75;39.49;102410.91;16124060;19;129334;-37
2022/12/02 01:58:37;;;;;;;9.88;6.47;;;;;;;17.73;38.99;102401.94;16120344;19;129850;-37
2022/12/02 02:04:00;;;;;;;8.63;5.90;;;;;;;17.73;38.98;102401.94;16121897;19;129891;-37
2022/12/02 02:09:22;;;;;;;7.78;5.85;;;;;;;17.71;39.39;102404.06;16121201;19;130902;-37
2022/12/02 02:14:43;;;;;;;9.73;6.80;;;;;;;17.68;39.02;102405.31;16122218;19;129390;-37
2022/12/02 02:20:10;;;;;;;9.35;6.10;;;;;;;17.66;38.99;102401.06;16121897;19;129546;-37
2022/12/02 02:25:36;;;;;;;8.73;6.55;;;;;;;17.65;39.30;102389.16;16122566;19;130207;-37
2022/12/02 02:30:57;;;;;;;8.55;6.43;;;;;;;17.64;38.95;102394.84;16118750;19;129778;-37
2022/12/02 02:36:20;;;;;;;10.43;7.05;;;;;;;17.62;38.99;102385.91;16120418;19;129879;-38
2022/12/02 02:41:42;;;;;;;9.80;6.50;;;;;;;17.62;38.96;102383.13;16120622;19;129374;-37
2022/12/02 02:47:04;;;;;;;9.88;6.10;;;;;;;17.60;39.22;102379.75;16120213;19;129594;-37
2022/12/02 02:52:25;;;;;;;9.80;6.28;;;;;;;17.58;38.93;102365.25;16120980;19;130477;-37
2022/12/02 02:57:48;;;;;;;11.38;6.95;;;;;;;17.55;38.95;102372.03;16121761;19;130203;-37
2022/12/02 03:03:13;;;;;;;8.65;6.13;;;;;;;17.55;39.24;102380.31;16119992;19;131061;-38
2022/12/02 03:08:38;;;;;;;9.87;6.23;;;;;;;17.54;39.03;102373.94;16121186;19;129821;-37
2022/12/02 03:14:01;;;;;;;10.97;7.60;;;;;;;17.54;39.03;102368.41;16118890;19;129226;-37
2022/12/02 03:19:23;;;;;;;10.70;7.30;;;;;;;17.52;38.90;102364.13;16116155;19;129855;-37
2022/12/02 03:24:45;;;;;;;11.98;7.18;;;;;;;17.50;39.07;102353.25;16117779;19;129948;-38
2022/12/02 03:30:07;;;;;;;11.80;7.90;;;;;;;17.50;39.04;102346.88;16117869;19;128956;-37
2022/12/02 03:35:29;;;;;;;13.85;8.35;;;;;;;17.49;38.88;102340.47;16116266;19;129743;-37
2022/12/02 03:40:51;;;;;;;11.88;7.95;;;;;;;17.47;39.14;102337.06;16124638;19;129604;-37
2022/12/02 03:46:14;;;;;;;11.27;7.45;;;;;;;17.46;38.90;102340.88;16131678;19;129999;-38
2022/12/02 03:51:36;;;;;;;11.07;7.30;;;;;;;17.45;39.04;102333.66;16132770;19;136502;-37
2022/12/02 03:56:57;;;;;;;11.32;6.95;;;;;;;17.45;39.15;102328.13;16129968;19;129715;-37
2022/12/02 04:02:19;;;;;;;10.10;6.75;;;;;;;17.43;39.15;102324.69;16124202;19;129574;-37
2022/12/02 04:07:41;;;;;;;10.10;7.30;;;;;;;17.42;39.07;102334.03;16126202;19;129468;-37
2022/12/02 04:13:03;;;;;;;11.20;7.63;;;;;;;17.41;39.10;102315.75;16128410;19;129546;-37
2022/12/02 04:18:25;;;;;;;9.38;6.20;;;;;;;17.40;39.03;102316.78;16128733;19;129706;-37
2022/12/02 04:23:47;;;;;;;9.95;6.93;;;;;;;17.40;39.43;102308.50;16129528;19;130313;-37
2022/12/02 04:29:09;;;;;;;10.13;6.95;;;;;;;17.38;39.17;102311.47;16128511;19;130327;-37
2022/12/02 04:34:31;;;;;;;10.20;6.72;;;;;;;17.38;38.99;102310.59;16130462;19;131455;-37
2022/12/02 04:39:52;;;;;;;10.60;6.63;;;;;;;17.36;39.35;102299.75;16128816;19;130349;-37
2022/12/02 04:45:14;;;;;;;12.43;7.50;;;;;;;17.35;39.11;102302.75;16129631;19;129770;-38
2022/12/02 04:50:36;;;;;;;8.32;6.38;;;;;;;17.35;39.31;102306.34;16128955;19;129831;-37
2022/12/02 04:55:58;;;;;;;10.48;7.03;;;;;;;17.33;38.87;102296.53;16128329;19;130019;-37
2022/12/02 05:01:19;;;;;;;9.77;6.72;;;;;;;17.34;38.85;102292.72;16127393;19;131159;-37
2022/12/02 05:06:41;;;;;;;12.25;8.13;;;;;;;17.31;39.16;102295.91;16126656;19;129577;-37
2022/12/02 05:12:03;;;;;;;11.88;7.95;;;;;;;17.30;39.16;102286.72;16127313;19;130179;-37
2022/12/02 05:17:25;;;;;;;12.50;8.75;;;;;;;17.29;39.04;102273.97;16124813;19;130737;-37
2022/12/02 05:22:46;;;;;;;13.38;8.57;;;;;;;17.27;38.98;102269.69;16126265;19;129243;-37
2022/12/02 05:28:08;;;;;;;13.30;8.48;;;;;;;17.24;39.16;102266.28;16124205;19;129535;-37
2022/12/02 05:33:30;;;;;;;11.93;8.05;;;;;;;17.25;38.86;102278.19;16125535;19;130264;-37
2022/12/02 05:38:52;;;;;;;13.48;8.77;;;;;;;17.24;38.80;102279.25;16123787;19;130716;-37
2022/12/02 05:44:22;;;;;;;14.05;9.20;;;;;;;17.23;39.01;102288.59;16124451;19;129616;-38
2022/12/02 05:49:45;;;;;;;16.38;10.10;;;;;;;17.20;38.80;102281.59;16126468;19;129575;-37
2022/12/02 05:55:13;;;;;;;16.23;10.10;;;;;;;17.20;38.41;102280.72;16125988;19;129560;-37
2022/12/02 06:00:35;;;;;;;16.58;9.93;;;;;;;17.17;38.54;102279.22;16125239;19;130637;-37
2022/12/02 06:05:57;;;;;;;14.18;9.35;;;;;;;17.18;38.59;102280.94;16119996;19;129700;-37
2022/12/02 06:11:29;;;;;;;12.85;8.45;;;;;;;17.46;38.22;102274.50;16121392;19;131260;-37
2022/12/02 06:16:56;;;;;;;15.25;8.50;;;;;;;17.99;37.81;102273.84;16125617;19;129923;-37
2022/12/02 06:22:29;;;;;;;10.80;7.50;;;;;;;18.62;36.97;102299.53;16121432;19;130063;-38
2022/12/02 06:27:54;;;;;;;12.23;7.00;;;;;;;19.14;36.38;102302.47;16122123;19;132217;-37
2022/12/02 06:33:27;;;;;;;11.20;7.38;;;;;;;19.61;35.72;102304.31;16118378;19;129600;-37
2022/12/02 06:38:55;;;;;;;16.48;7.90;;;;;;;19.82;35.45;102287.34;16120180;19;129688;-37
2022/12/02 06:50:06;;;;;;;11.43;7.80;;;;;;;19.78;35.05;102291.63;16117070;19;130076;-37
2022/12/02 06:55:33;;;;;;;13.63;8.27;;;;;;;19.64;35.03;102284.41;16121910;19;130665;-37
2022/12/02 07:01:10;;;;;;;12.82;7.78;;;;;;;19.48;35.22;102285.78;16120723;19;129644;-37
2022/12/02 07:06:43;;;;;;;12.75;8.15;;;;;;;19.31;35.16;102296.50;16120491;19;129673;-37
2022/12/02 07:12:19;;;;;;;12.70;8.25;;;;;;;19.15;35.28;102297.78;16119301;19;129224;-37
2022/12/02 07:17:43;;;;;;;13.75;8.60;;;;;;;18.99;35.78;102288.84;16134310;19;130823;-37
2022/12/02 07:23:23;;;;;;;12.65;7.90;;;;;;;18.85;35.32;102287.16;16135530;19;129225;-37
2022/12/02 07:28:45;;;;;;;12.82;8.05;;;;;;;18.71;35.51;102286.31;16135022;19;130350;-37
2022/12/02 07:34:07;;;;;;;14.07;8.30;;;;;;;18.60;35.71;102279.50;16133924;19;129335;-37
2022/12/02 07:39:28;;;;;;;12.88;8.43;;;;;;;18.49;36.27;102286.53;16138699;19;131123;-37
2022/12/02 07:44:50;;;;;;;12.75;7.80;;;;;;;18.41;35.82;102286.72;16136402;19;129614;-37
2022/12/02 07:50:14;;;;;;;13.52;8.57;;;;;;;18.30;35.61;102286.25;16133317;19;129605;-37
2022/12/02 07:55:36;;;;;;;10.30;7.18;;;;;;;18.25;35.58;102282.41;16132975;19;129668;-38
2022/12/02 08:00:58;;;;;;;12.50;6.90;;;;;;;18.31;35.84;102292.66;16131890;19;129312;-36
2022/12/02 08:06:20;;;;;;;13.65;7.57;;;;;;;18.44;35.44;102298.25;16129682;19;129569;-37
2022/12/02 08:11:41;;;;;;;10.48;7.10;;;;;;;18.57;35.24;102296.56;16129695;19;129021;-37
2022/12/02 08:17:03;;;;;;;10.65;6.25;;;;;;;18.69;35.28;102297.63;16130542;19;129474;-37
2022/12/02 08:22:25;;;;;;;11.38;7.22;;;;;;;18.80;35.27;102296.13;16127383;19;129676;-38
2022/12/02 08:27:47;;;;;;;13.27;6.38;;;;;;;18.88;35.21;102292.28;16128647;19;130165;-37
2022/12/02 08:33:09;;;;;;;9.23;6.18;;;;;;;18.89;35.20;102294.81;16130314;19;129451;-37
2022/12/02 08:38:30;;;;;;;11.80;6.72;;;;;;;18.85;35.07;102303.78;16128503;19;133365;-37
2022/12/02 08:43:52;;;;;;;14.63;6.30;;;;;;;18.77;35.03;102294.63;16128420;19;129585;-37
2022/12/02 08:49:14;;;;;;;17.63;7.40;;;;;;;18.70;34.99;102293.81;16126986;19;130444;-38
2022/12/02 08:54:37;;;;;;;12.73;5.40;;;;;;;18.70;35.14;102293.81;16131271;19;134037;-38
2022/12/02 08:59:58;;;;;;;15.45;5.68;;;;;;;18.71;35.01;102298.25;16127679;19;130257;-38
2022/12/02 09:05:20;;;;;;;10.90;5.63;;;;;;;18.80;35.24;102292.50;16125842;19;130359;-37
2022/12/02 09:10:42;;;;;;;10.13;5.63;;;;;;;18.97;34.78;102290.97;16128367;19;129583;-38
2022/12/02 09:16:04;;;;;;;8.35;4.97;;;;;;;19.14;34.60;102279.44;16125826;19;129346;-38
2022/12/02 09:21:26;;;;;;;11.30;4.78;;;;;;;19.29;34.66;102274.53;16125036;19;129508;-42
2022/12/02 09:26:48;;;;;;;8.15;5.45;;;;;;;19.42;34.38;102270.84;16124839;19;129236;-40
2022/12/02 09:32:10;;;;;;;8.05;4.72;;;;;;;19.52;34.25;102270.41;16124982;19;129741;-42
2022/12/02 09:37:32;;;;;;;6.95;4.45;;;;;;;19.51;34.09;102269.53;16124665;19;129604;-44
2022/12/02 09:42:54;;;;;;;8.32;5.10;;;;;;;19.47;34.38;102268.28;16126288;19;129443;-40
2022/12/02 09:48:15;;;;;;;10.60;5.25;;;;;;;19.37;34.24;102267.91;16127414;19;133696;-41
2022/12/02 09:53:40;;;;;;;25.95;6.78;;;;;;;19.27;34.27;102278.56;16123581;19;130362;-38
2022/12/02 09:59:12;;;;;;;28.85;6.80;;;;;;;19.15;34.71;102270.06;16121687;19;129510;-37
2022/12/02 10:04:33;;;;;;;37.97;8.45;;;;;;;19.06;34.79;102269.44;16124476;19;129373;-37
2022/12/02 10:09:55;;;;;;;41.70;7.65;;;;;;;18.99;35.15;102265.81;16122817;19;133330;-37
2022/12/02 10:15:22;;;;;;;30.55;8.43;;;;;;;18.93;34.97;102273.09;16120422;19;129527;-38
2022/12/02 10:20:44;;;;;;;31.13;8.70;;;;;;;18.88;34.88;102259.00;16119301;19;129308;-37
2022/12/02 10:26:06;;;;;;;29.77;8.45;;;;;;;18.82;35.39;102252.41;16120258;19;129399;-38
2022/12/02 10:31:31;;;;;;;21.43;8.67;;;;;;;18.76;35.01;102248.56;16120469;19;130726;-37
2022/12/02 10:36:53;;;;;;;32.25;6.60;;;;;;;18.71;35.27;102231.72;16122728;19;130359;-38
2022/12/02 10:42:20;;;;;;;24.67;6.93;;;;;;;18.66;35.40;102223.22;16118946;19;129588;-37
2022/12/02 10:47:41;;;;;;;19.15;6.70;;;;;;;18.61;35.26;102232.19;16119649;19;129504;-38
2022/12/02 10:53:11;;;;;;;16.15;7.40;;;;;;;18.54;35.60;102238.78;16120478;19;129457;-38
2022/12/02 10:58:33;;;;;;;26.30;8.85;;;;;;;18.48;35.46;102231.31;16123004;19;130002;-38
2022/12/02 11:03:54;;;;;;;16.63;7.72;;;;;;;18.43;35.28;102224.50;16121622;19;129541;-37
2022/12/02 11:09:20;;;;;;;16.23;6.60;;;;;;;18.42;35.77;102217.25;16116597;19;129647;-37
2022/12/02 11:15:32;;;;;;;21.13;7.07;;;;;;;18.40;35.86;102218.56;16120008;19;130780;-38
2022/12/02 11:21:26;;;;;;;16.90;6.43;;;;;;;18.33;35.76;102212.09;16118024;19;129683;-37
2022/12/02 11:27:01;;;;;;;16.63;7.60;;;;;;;18.25;35.47;102210.41;16115986;19;129539;-37
2022/12/02 11:32:25;;;;;;;12.18;6.50;;;;;;;18.15;35.50;102210.84;16114909;19;128998;-38
2022/12/02 11:37:47;;;;;;;16.85;7.70;;;;;;;18.03;35.47;102213.38;16116477;19;129718;-37
2022/12/02 11:43:51;;;;;;;16.83;7.55;;;;;;;18.02;34.82;102205.28;16115257;19;129515;-37
2022/12/02 11:49:41;;;;;;;14.77;6.85;;;;;;;18.10;34.54;102197.59;16115985;19;130984;-46
2022/12/02 11:55:05;;;;;;;13.60;6.70;;;;;;;18.22;34.73;102183.09;16115389;19;129640;-41
2022/12/02 12:00:32;;;;;;;15.48;6.20;;;;;;;18.55;33.91;102185.06;16120172;19;129468;-39
2022/12/02 12:06:05;;;;;;;18.42;5.38;;;;;;;19.06;33.66;102175.13;16131940;19;129623;-38
2022/12/02 12:11:37;;;;;;;13.80;4.72;;;;;;;19.60;33.19;102155.47;16133268;19;130438;-40
2022/12/02 12:17:17;;;;;;;18.50;4.97;;;;;;;20.04;32.77;102162.03;16128070;19;129900;-40
2022/12/02 12:22:39;;;;;;;14.80;4.43;;;;;;;20.28;32.53;102152.00;16129401;19;129660;-42
2022/12/02 12:28:01;;;;;;;11.70;4.35;;;;;;;20.39;32.47;102153.16;16130055;19;130594;-39
2022/12/02 12:33:23;;;;;;;7.88;4.03;;;;;;;20.39;32.41;102144.00;16129598;19;129626;-40
2022/12/02 12:38:45;;;;;;;9.00;4.13;;;;;;;20.29;32.75;102159.25;16128061;19;129787;-44
2022/12/02 12:44:07;;;;;;;10.98;3.90;;;;;;;20.16;32.75;102147.41;16126158;19;129942;-41
2022/12/02 12:49:30;;;;;;;8.25;3.72;;;;;;;20.00;33.20;102149.66;16129294;19;129508;-41
2022/12/02 12:54:52;;;;;;;8.00;4.00;;;;;;;19.83;33.16;102143.78;16130841;19;129186;-42
2022/12/02 13:00:14;;;;;;;11.00;4.15;;;;;;;19.66;33.29;102138.78;16124242;19;129651;-39
2022/12/02 13:05:36;;;;;;;5.30;3.20;;;;;;;19.51;33.66;102141.00;16125807;19;129128;-40
2022/12/02 13:10:58;;;;;;;7.75;4.28;;;;;;;19.36;33.43;102133.81;16123606;19;129422;-39
2022/12/02 13:16:20;;;;;;;6.20;3.70;;;;;;;19.23;34.05;102120.03;16124774;19;130274;-40
2022/12/02 13:21:41;;;;;;;7.43;4.10;;;;;;;19.11;33.99;102118.97;16125426;19;129509;-40
2022/12/02 13:27:03;;;;;;;8.15;4.40;;;;;;;19.00;33.81;102118.59;16125686;19;129017;-40
2022/12/02 13:32:25;;;;;;;11.75;5.82;;;;;;;18.88;33.83;102112.03;16118765;19;129635;-40
2022/12/02 13:37:47;;;;;;;10.95;5.13;;;;;;;18.76;34.12;102109.13;16120070;19;129812;-39
2022/12/02 13:43:09;;;;;;;9.68;5.10;;;;;;;18.65;34.18;102110.63;16124765;19;129944;-40
2022/12/02 13:48:30;;;;;;;12.55;5.63;;;;;;;18.55;34.33;102104.69;16126069;19;129777;-39
2022/12/02 13:53:52;;;;;;;9.55;5.90;;;;;;;18.48;34.13;102109.38;16126069;19;129905;-40
2022/12/02 13:59:19;;;;;;;10.90;5.85;;;;;;;18.38;34.59;102099.56;16121041;19;129580;-39
2022/12/02 14:04:41;;;;;;;9.65;5.43;;;;;;;18.30;34.35;102108.13;16124998;19;130606;-43
2022/12/02 14:10:04;;;;;;;11.38;6.20;;;;;;;18.24;34.58;102108.97;16122818;19;129740;-39
2022/12/02 14:15:26;;;;;;;11.45;5.82;;;;;;;18.17;34.31;102110.91;16126306;19;131075;-40
2022/12/02 14:20:48;;;;;;;11.45;6.13;;;;;;;18.12;34.72;102108.78;16122831;19;130521;-38
2022/12/02 14:26:09;;;;;;;13.25;6.82;;;;;;;18.09;34.66;102111.97;16121003;19;130388;-39
2022/12/02 14:31:31;;;;;;;10.57;5.45;;;;;;;18.06;34.63;102118.78;16121605;19;129703;-40
2022/12/02 14:36:53;;;;;;;9.30;5.80;;;;;;;18.05;34.56;102121.75;16122404;19;130225;-39
2022/12/02 14:42:15;;;;;;;10.80;5.60;;;;;;;18.14;34.26;102121.34;16119735;19;129320;-39
2022/12/02 14:47:37;;;;;;;10.55;5.70;;;;;;;18.37;33.96;102127.50;16120200;19;129315;-40
2022/12/02 14:52:59;;;;;;;11.15;5.35;;;;;;;18.68;33.61;102115.75;16119555;19;130381;-39
2022/12/02 14:58:20;;;;;;;9.43;5.30;;;;;;;18.99;33.43;102114.13;16119885;19;132075;-39
2022/12/02 15:03:42;;;;;;;9.43;5.07;;;;;;;19.28;32.98;102124.91;16119695;19;129795;-39
2022/12/02 15:09:04;;;;;;;7.72;4.60;;;;;;;19.48;32.86;102116.47;16116711;19;129311;-39
2022/12/02 15:14:26;;;;;;;9.93;5.70;;;;;;;19.57;32.82;102122.59;16118834;19;132155;-39
2022/12/02 15:19:48;;;;;;;8.98;5.13;;;;;;;19.57;32.62;102133.72;16117925;19;129316;-40
2022/12/02 15:25:11;;;;;;;12.68;4.53;;;;;;;19.53;32.86;102134.16;16118354;19;129803;-39
2022/12/02 15:30:32;;;;;;;7.60;4.40;;;;;;;19.44;32.53;102134.66;16117896;19;131046;-39
2022/12/02 15:35:54;;;;;;;7.53;4.80;;;;;;;19.35;32.62;102132.13;16122488;19;129621;-38
2022/12/02 15:41:16;;;;;;;7.65;4.13;;;;;;;19.24;32.84;102130.06;16134484;19;132564;-39
2022/12/02 15:46:37;;;;;;;7.40;4.18;;;;;;;19.14;32.88;102126.88;16134144;19;129190;-39
2022/12/02 15:51:59;;;;;;;9.07;4.60;;;;;;;19.03;32.71;102132.03;16135895;19;131038;-39
2022/12/02 15:57:21;;;;;;;7.65;4.18;;;;;;;18.94;33.07;102140.81;16128837;19;129819;-39
2022/12/02 16:02:43;;;;;;;11.20;4.70;;;;;;;18.83;33.12;102140.44;16127216;19;129632;-41
2022/12/02 16:08:04;;;;;;;9.48;5.30;;;;;;;18.74;33.23;102137.03;16130929;19;129206;-41
2022/12/02 16:13:26;;;;;;;13.15;5.90;;;;;;;18.65;32.90;102149.44;16130017;19;129546;-39
2022/12/02 16:18:48;;;;;;;13.80;6.43;;;;;;;18.56;32.85;102150.75;16131902;19;130698;-39
2022/12/02 16:24:10;;;;;;;12.57;5.80;;;;;;;18.46;33.03;102151.19;16129255;19;129602;-39
2022/12/02 16:29:32;;;;;;;14.82;6.35;;;;;;;18.40;33.10;102152.88;16131914;19;129521;-38
2022/12/02 16:34:53;;;;;;;10.60;5.75;;;;;;;18.31;33.26;102157.75;16130879;19;129746;-38
2022/12/02 16:40:16;;;;;;;11.68;5.88;;;;;;;18.23;32.95;102162.66;16131825;19;133613;-38
2022/12/02 16:45:37;;;;;;;12.13;6.38;;;;;;;18.17;32.72;102171.84;16131471;19;129543;-38
2022/12/02 16:50:59;;;;;;;14.23;6.25;;;;;;;18.12;33.28;102166.94;16126619;19;129649;-38
2022/12/02 16:56:21;;;;;;;11.75;6.05;;;;;;;18.11;33.33;102179.06;16125744;19;129403;-39
2022/12/02 17:01:43;;;;;;;12.43;5.88;;;;;;;18.12;33.08;102184.41;16127323;19;129495;-38
2022/12/02 17:07:04;;;;;;;10.60;5.65;;;;;;;18.13;33.09;102193.56;16128454;19;129673;-39
2022/12/02 17:12:26;;;;;;;11.38;6.38;;;;;;;18.13;33.14;102188.88;16127319;19;129252;-39
2022/12/02 17:17:48;;;;;;;13.63;7.13;;;;;;;18.16;32.68;102195.91;16125135;19;129352;-38
2022/12/02 17:23:10;;;;;;;9.40;6.07;;;;;;;18.19;32.54;102189.09;16121807;19;129603;-38
2022/12/02 17:28:32;;;;;;;11.82;7.40;;;;;;;18.23;32.86;102201.44;16127853;19;130897;-38
2022/12/02 17:33:54;;;;;;;11.48;7.35;;;;;;;18.25;32.49;102199.31;16127166;19;129451;-41
2022/12/02 17:39:17;;;;;;;11.15;7.03;;;;;;;18.37;32.47;102199.53;16125020;19;129707;-39
2022/12/02 17:44:38;;;;;;;10.70;6.85;;;;;;;18.63;32.32;102206.16;16122806;19;129564;-38
2022/12/02 17:50:00;;;;;;;12.85;7.70;;;;;;;18.89;32.39;102189.47;16126424;19;129515;-39
2022/12/02 17:55:25;;;;;;;12.23;8.25;;;;;;;19.19;31.76;102197.28;16122439;19;128992;-40
2022/12/02 18:00:46;;;;;;;13.95;9.02;;;;;;;19.46;31.41;102193.53;16124369;19;129085;-39
2022/12/02 18:06:08;;;;;;;12.63;8.63;;;;;;;19.66;30.98;102197.09;16122629;19;129426;-39
2022/12/02 18:11:30;;;;;;;13.55;8.82;;;;;;;19.77;30.95;102191.91;16124585;19;130382;-36
2022/12/02 18:16:52;;;;;;;40.38;8.90;;;;;;;19.77;31.50;102200.22;16122184;19;130015;-36
2022/12/02 18:22:13;;;;;;;23.13;10.00;;;;;;;19.71;31.71;102195.53;16121549;19;129582;-37
2022/12/02 18:27:35;;;;;;;16.77;9.07;;;;;;;19.66;31.95;102199.00;16122213;19;129473;-37
2022/12/02 18:32:57;;;;;;;37.20;10.13;;;;;;;19.58;32.22;102197.31;16116157;19;130803;-38
2022/12/02 18:38:19;;;;;;;22.10;11.18;;;;;;;19.51;31.95;102196.53;16116881;19;129627;-36
2022/12/02 18:43:40;;;;;;;26.20;10.70;;;;;;;19.53;32.06;102186.88;16118543;19;129398;-38
2022/12/02 18:49:02;;;;;;;21.80;10.13;;;;;;;19.64;32.23;102188.13;16119869;19;129906;-37
2022/12/02 18:54:24;;;;;;;16.30;9.52;;;;;;;19.75;31.88;102191.25;16118122;19;130593;-37
2022/12/02 18:59:45;;;;;;;19.23;9.10;;;;;;;19.83;32.29;102188.22;16122260;19;129636;-38
2022/12/02 19:05:07;;;;;;;18.55;9.05;;;;;;;19.88;32.09;102185.63;16120450;19;130140;-38
2022/12/02 19:10:29;;;;;;;13.40;8.88;;;;;;;19.92;31.83;102181.34;16117475;19;130338;-37
2022/12/02 19:15:51;;;;;;;15.43;8.68;;;;;;;20.02;32.01;102180.00;16122077;19;130670;-38
2022/12/02 19:21:13;;;;;;;18.83;8.90;;;;;;;20.32;31.87;102174.63;16118355;19;129905;-38
2022/12/02 19:26:35;;;;;;;28.60;9.85;;;;;;;20.64;31.91;102179.25;16121272;19;129787;-38
2022/12/02 19:31:56;;;;;;;20.08;8.63;;;;;;;20.96;31.47;102184.69;16117676;19;129267;-37
2022/12/02 19:37:18;;;;;;;19.30;7.88;;;;;;;21.25;31.28;102171.91;16117864;19;129170;-38
2022/12/02 19:42:40;;;;;;;20.38;9.82;;;;;;;21.43;30.69;102173.81;16113508;19;129294;-38
2022/12/02 19:48:02;;;;;;;21.67;9.80;;;;;;;21.45;30.57;102170.81;16116485;19;129416;-41
2022/12/02 19:53:24;;;;;;;21.10;10.85;;;;;;;21.42;30.46;102174.91;16113374;19;129858;-37
2022/12/02 19:58:46;;;;;;;19.77;9.60;;;;;;;21.35;29.89;102182.50;16115456;19;129513;-37
2022/12/02 20:04:07;;;;;;;14.98;8.82;;;;;;;21.31;29.96;102175.69;16115762;19;129372;-38
2022/12/02 20:09:49;;;;;;;13.25;9.25;;;;;;;21.20;30.41;102178.19;16115114;19;130254;-39
2022/12/02 20:15:12;;;;;;;18.20;8.43;;;;;;;21.08;30.20;102174.50;16115202;19;130417;-38
2022/12/02 20:20:34;;;;;;;15.27;8.40;;;;;;;20.94;30.31;102170.16;16118654;19;129580;-38
2022/12/02 20:25:55;;;;;;;13.70;8.50;;;;;;;20.81;30.70;102166.44;16132348;19;132312;-37
2022/12/02 20:31:17;;;;;;;19.45;9.50;;;;;;;20.68;30.77;102177.69;16132273;19;130173;-38
2022/12/02 20:36:39;;;;;;;14.63;8.95;;;;;;;20.59;31.22;102172.44;16131876;19;130600;-40
2022/12/02 20:42:01;;;;;;;16.48;8.30;;;;;;;20.57;31.51;102170.97;16133429;19;130327;-37
2022/12/02 20:47:23;;;;;;;21.70;7.95;;;;;;;20.58;31.56;102172.66;16130685;19;129288;-37
2022/12/02 20:52:44;;;;;;;17.67;8.32;;;;;;;20.57;31.86;102165.41;16126029;19;130071;-37
2022/12/02 20:58:14;;;;;;;17.23;8.27;;;;;;;20.57;31.58;102177.38;16126316;19;129402;-38
2022/12/02 21:03:36;;;;;;;22.80;8.82;;;;;;;20.55;31.30;102164.78;16122710;19;134406;-37
2022/12/02 21:08:57;;;;;;;17.85;8.20;;;;;;;20.54;31.91;102175.06;16124995;19;129939;-38
2022/12/02 21:14:19;;;;;;;15.55;7.95;;;;;;;20.48;31.73;102167.63;16126417;19;129638;-37
2022/12/02 21:19:41;;;;;;;15.35;8.38;;;;;;;20.42;32.21;102171.34;16129176;19;130663;-37
2022/12/02 21:25:03;;;;;;;14.07;7.80;;;;;;;20.32;32.16;102170.97;16127290;19;129032;-37
2022/12/02 21:30:25;;;;;;;14.85;7.35;;;;;;;20.20;32.51;102177.28;16125685;19;129049;-37
2022/12/02 21:35:46;;;;;;;15.70;7.93;;;;;;;20.08;32.74;102173.53;16124449;19;129847;-37
2022/12/02 21:41:08;;;;;;;9.63;7.00;;;;;;;19.96;32.88;102171.44;16125843;19;129729;-37
2022/12/02 21:46:30;;;;;;;13.88;7.18;;;;;;;19.86;32.60;102173.88;16129663;19;129463;-37
2022/12/02 21:51:52;;;;;;;10.52;6.30;;;;;;;19.78;32.90;102171.38;16125623;19;129126;-38
2022/12/02 21:57:14;;;;;;;17.23;7.07;;;;;;;19.67;33.35;102176.56;16122161;19;129848;-37
2022/12/02 22:02:36;;;;;;;11.05;6.53;;;;;;;19.61;32.98;102174.69;16125906;19;135470;-38
2022/12/02 22:07:57;;;;;;;8.73;6.75;;;;;;;19.55;33.35;102172.81;16124620;19;129793;-37
2022/12/02 22:13:19;;;;;;;14.07;7.20;;;;;;;19.50;33.50;102183.72;16122820;19;129272;-37
2022/12/02 22:18:41;;;;;;;10.45;6.25;;;;;;;19.42;33.57;102181.19;16124482;19;129582;-39
2022/12/02 22:24:03;;;;;;;10.02;6.00;;;;;;;19.36;33.82;102172.69;16120969;19;129544;-37
2022/12/02 22:29:25;;;;;;;8.63;6.20;;;;;;;19.30;33.85;102183.81;16118789;19;129699;-46
2022/12/02 22:34:47;;;;;;;13.50;6.30;;;;;;;19.22;33.40;102182.13;16126167;19;129532;-47
2022/12/02 22:40:10;;;;;;;12.25;6.28;;;;;;;19.14;33.38;102180.41;16123629;19;130890;-46
2022/12/02 22:45:32;;;;;;;11.30;6.43;;;;;;;19.04;33.27;102183.69;16121700;19;130257;-46
2022/12/02 22:50:54;;;;;;;12.25;6.22;;;;;;;18.99;33.33;102171.53;16122063;19;129635;-47
2022/12/02 22:56:15;;;;;;;15.23;5.90;;;;;;;18.90;33.50;102168.13;16122931;19;134625;-46
2022/12/02 23:01:37;;;;;;;8.98;6.22;;;;;;;18.83;33.61;102172.88;16120191;19;129437;-46
2022/12/02 23:06:59;;;;;;;9.23;5.50;;;;;;;18.76;33.19;102170.94;16117768;19;129225;-46
2022/12/02 23:12:21;;;;;;;9.48;5.53;;;;;;;18.70;33.11;102174.59;16117688;19;129388;-46
2022/12/02 23:17:43;;;;;;;7.45;4.90;;;;;;;18.64;33.16;102164.38;16119816;19;129239;-46
2022/12/02 23:23:04;;;;;;;8.45;5.20;;;;;;;18.61;33.21;102170.34;16117784;19;129729;-46
2022/12/02 23:28:26;;;;;;;6.50;5.03;;;;;;;18.55;33.13;102162.91;16119822;19;129728;-47
2022/12/02 23:33:48;;;;;;;5.80;4.60;;;;;;;18.50;32.99;102163.53;16119195;19;129145;-46
2022/12/02 23:39:10;;;;;;;9.27;5.28;;;;;;;18.45;32.99;102155.00;16116862;19;129454;-46
2022/12/02 23:44:32;;;;;;;7.90;4.93;;;;;;;18.41;33.23;102153.72;16119950;19;129957;-46
2022/12/02 23:49:53;;;;;;;8.00;4.88;;;;;;;18.34;32.92;102148.16;16121070;19;129620;-46
2022/12/02 23:55:16;;;;;;;6.55;4.85;;;;;;;18.32;33.17;102150.31;16119160;19;129864;-46
